Van Vleet, Mississippi
Current Conditions -  °F | °C
As of 8:53 PM on Saturday 20 Dec 2014 (Local Time) from KTUP Reporting Station
Clear Clear  
Wind Chill: 28°   Ceiling: Unl
Heat Index: 34°   Visibility: 10mi
Dew Point: 30°   Wind: 7mph
Humidity: 85%   Direction: 50°NE
Pressure: 30.23"   Gusts: NA
Location:  33.99°N, 88.9°W
Report Text: KTUP 210253Z 05006KT 10SM CLR 01/M01 A3023 RMK AO2 SLP237 T00111011 50005
Loading
Personal Weather Stations






























Interactive Weather Map New forecast layout! Learn more

10-Day Weather Forecast

Advertisements
Track Severe Weather on mobile